createdAt,value
2023-01-18T00:55:43.129Z,4.87
2023-01-18T00:58:15.585Z,2.73
2023-01-18T01:00:45.469Z,4.80
2023-01-18T01:03:16.410Z,3.43
2023-01-18T01:06:10.589Z,3.00
2023-01-18T01:08:43.411Z,2.87
2023-01-18T01:11:15.108Z,2.73
2023-01-18T01:13:59.865Z,3.20
2023-01-18T01:16:42.089Z,2.70
2023-01-18T01:19:24.291Z,4.67
2023-01-18T01:22:06.606Z,2.97
2023-01-18T01:24:48.767Z,2.77
2023-01-18T01:27:18.611Z,3.73
2023-01-18T01:29:52.686Z,4.27
2023-01-18T01:32:22.450Z,3.30
2023-01-18T01:34:52.189Z,2.93
2023-01-18T01:37:21.919Z,3.20
2023-01-18T01:39:51.704Z,4.20
2023-01-18T01:42:21.499Z,2.90
2023-01-18T01:44:54.673Z,2.93
2023-01-18T01:47:42.832Z,3.07
2023-01-18T01:50:22.655Z,4.80
2023-01-18T01:52:52.722Z,5.80
2023-01-18T01:55:27.492Z,4.10
2023-01-18T01:58:03.407Z,6.53
2023-01-18T02:00:36.584Z,4.80
2023-01-18T02:03:10.381Z,3.90
2023-01-18T02:05:46.527Z,4.30
2023-01-18T02:08:22.876Z,4.60
2023-01-18T02:10:53.455Z,5.00
2023-01-18T02:13:25.822Z,3.30
2023-01-18T02:16:08.431Z,4.47
2023-01-18T02:18:48.851Z,3.90
2023-01-18T02:21:21.398Z,3.67
2023-01-18T02:24:23.733Z,3.17
2023-01-18T02:26:59.940Z,4.00
2023-01-18T02:29:55.585Z,4.53
2023-01-18T02:32:41.762Z,5.13
2023-01-18T02:35:14.867Z,3.27
2023-01-18T02:37:51.832Z,3.67
2023-01-18T02:40:27.169Z,4.93
2023-01-18T02:43:11.458Z,4.50
2023-01-18T02:45:59.304Z,4.80
2023-01-18T02:48:36.237Z,4.73
2023-01-18T02:51:06.952Z,2.60
2023-01-18T02:53:41.494Z,3.10
2023-01-18T02:56:16.466Z,5.60
2023-01-18T02:58:49.998Z,5.70
2023-01-18T03:01:30.393Z,3.20
2023-01-18T03:04:04.539Z,2.93
2023-01-18T03:06:36.046Z,4.33
2023-01-18T03:09:06.200Z,4.90
2023-01-18T03:11:43.523Z,3.23
2023-01-18T03:14:21.603Z,4.00
2023-01-18T03:17:01.529Z,2.60
2023-01-18T03:19:52.649Z,4.50
2023-01-18T03:22:42.608Z,4.83
2023-01-18T03:25:13.230Z,4.50
2023-01-18T03:27:58.263Z,3.47
2023-01-18T03:30:40.621Z,3.70
2023-01-18T03:33:26.253Z,2.37
2023-01-18T03:35:58.252Z,3.07
2023-01-18T03:38:28.799Z,5.87
2023-01-18T03:41:00.113Z,2.87
2023-01-18T03:43:36.492Z,2.07
2023-01-18T03:46:08.248Z,4.07
2023-01-18T03:48:40.668Z,3.93
2023-01-18T03:51:18.829Z,2.40
2023-01-18T03:53:58.329Z,3.27
2023-01-18T03:56:37.494Z,2.77
2023-01-18T03:59:09.028Z,3.73
2023-01-18T04:01:39.487Z,2.87
2023-01-18T04:04:11.860Z,4.60
2023-01-18T04:06:41.727Z,5.37
2023-01-18T04:09:11.963Z,3.10
2023-01-18T04:11:41.723Z,5.30
2023-01-18T04:14:11.493Z,2.93
2023-01-18T04:16:41.242Z,2.50
2023-01-18T04:19:13.655Z,2.80
2023-01-18T04:21:46.415Z,3.47
2023-01-18T04:24:17.379Z,3.47
2023-01-18T04:26:47.126Z,2.30
2023-01-18T04:29:17.356Z,2.93
2023-01-18T04:31:47.325Z,3.77
2023-01-18T04:34:20.460Z,4.10
2023-01-18T04:36:50.227Z,3.53
2023-01-18T04:39:20.537Z,3.93
2023-01-18T04:41:50.320Z,3.17
2023-01-18T04:44:20.318Z,3.87
2023-01-18T04:46:51.185Z,3.07
2023-01-18T04:49:24.276Z,4.20
2023-01-18T04:51:54.037Z,5.30
2023-01-18T04:54:23.785Z,3.27
2023-01-18T04:56:53.792Z,5.17
2023-01-18T04:59:23.550Z,3.23
2023-01-18T05:01:53.295Z,3.53
2023-01-18T05:04:25.745Z,3.77
2023-01-18T05:06:55.499Z,4.43
2023-01-18T05:09:25.256Z,3.73
2023-01-18T05:11:54.997Z,3.80
2023-01-18T05:14:24.771Z,3.80
2023-01-18T05:16:54.509Z,5.07
2023-01-18T05:19:30.749Z,5.53
2023-01-18T05:22:00.499Z,4.23
2023-01-18T05:24:30.366Z,5.57
2023-01-18T05:27:00.252Z,3.70
2023-01-18T05:29:30.131Z,5.93
2023-01-18T05:31:59.892Z,4.13
2023-01-18T05:34:32.238Z,8.23
2023-01-18T05:37:02.054Z,4.33
2023-01-18T05:39:31.814Z,5.13
2023-01-18T05:42:01.717Z,5.33
2023-01-18T05:44:31.482Z,4.30
2023-01-18T05:47:01.907Z,5.50
2023-01-18T05:49:34.672Z,5.00
2023-01-18T05:52:04.751Z,4.77
2023-01-18T05:54:34.638Z,5.13
2023-01-18T05:57:04.525Z,4.47
2023-01-18T05:59:34.477Z,7.77
2023-01-18T06:02:04.428Z,3.97
2023-01-18T06:04:36.967Z,5.80
2023-01-18T06:07:06.889Z,4.43
2023-01-18T06:09:36.649Z,5.37
2023-01-18T06:12:10.378Z,7.03
2023-01-18T06:14:40.149Z,6.03
2023-01-18T06:17:09.954Z,6.03
2023-01-18T06:19:42.398Z,6.63
2023-01-18T06:22:12.217Z,3.87
2023-01-18T06:24:41.971Z,5.13
2023-01-18T06:27:11.750Z,6.20
2023-01-18T06:29:41.536Z,6.27
2023-01-18T06:32:11.290Z,6.10
2023-01-18T06:34:43.670Z,5.37
2023-01-18T06:37:13.471Z,5.60
2023-01-18T06:39:43.271Z,5.33
2023-01-18T06:42:13.027Z,4.83
2023-01-18T06:44:42.788Z,4.80
2023-01-18T06:47:12.554Z,5.40
2023-01-18T06:49:44.935Z,5.23
2023-01-18T06:52:14.686Z,6.43
2023-01-18T06:54:44.997Z,6.23
2023-01-18T06:57:15.621Z,5.20
2023-01-18T06:59:45.378Z,6.53
2023-01-18T07:02:18.109Z,5.33
2023-01-18T07:04:50.490Z,5.57
2023-01-18T07:07:20.326Z,6.87
2023-01-18T07:09:50.162Z,6.07
2023-01-18T07:12:19.919Z,6.60
2023-01-18T07:14:49.751Z,7.10
2023-01-18T07:17:19.701Z,6.47
2023-01-18T07:19:52.053Z,5.67
2023-01-18T07:22:21.948Z,5.80
2023-01-18T07:24:51.761Z,5.77
2023-01-18T07:27:21.534Z,5.40
2023-01-18T07:29:51.274Z,6.73
2023-01-18T07:32:21.010Z,6.63
2023-01-18T07:34:53.366Z,7.00
2023-01-18T07:37:23.142Z,8.90
2023-01-18T07:39:52.886Z,7.40
2023-01-18T07:42:22.673Z,7.00
2023-01-18T07:44:52.438Z,6.77
2023-01-18T07:47:22.213Z,8.47
2023-01-18T07:49:54.569Z,10.07
2023-01-18T07:52:24.309Z,8.10
2023-01-18T07:54:54.098Z,9.97
2023-01-18T07:57:23.993Z,9.20
2023-01-18T07:59:54.158Z,9.20
2023-01-18T08:02:24.402Z,6.73
2023-01-18T08:04:57.039Z,7.67
2023-01-18T08:07:26.894Z,7.13
2023-01-18T08:09:57.996Z,10.27
2023-01-18T08:12:28.125Z,11.23
2023-01-18T08:14:57.877Z,10.20
2023-01-18T08:17:28.078Z,6.87
2023-01-18T08:20:00.425Z,9.07
2023-01-18T08:22:30.259Z,8.03
2023-01-18T08:25:00.202Z,7.93
2023-01-18T08:27:46.380Z,9.90
2023-01-18T08:30:17.092Z,8.67
2023-01-18T08:32:46.894Z,7.40
2023-01-18T08:35:19.402Z,9.00
2023-01-18T08:37:49.175Z,8.10
2023-01-18T08:40:19.066Z,6.43
2023-01-18T08:42:51.301Z,7.57
2023-01-18T08:45:21.145Z,6.50
2023-01-18T08:47:50.935Z,9.53
2023-01-18T08:50:23.404Z,6.83
2023-01-18T08:52:54.220Z,6.23
2023-01-18T08:55:24.841Z,6.87
2023-01-18T08:57:57.765Z,6.80
2023-01-18T09:00:30.299Z,6.90
2023-01-18T09:03:02.171Z,8.97
2023-01-18T09:05:36.832Z,10.90
2023-01-18T09:08:06.673Z,6.37
2023-01-18T09:10:37.683Z,7.63
2023-01-18T09:13:08.443Z,8.27
2023-01-18T09:15:38.238Z,7.03
2023-01-18T09:18:08.843Z,6.17
2023-01-18T09:20:43.608Z,6.77
2023-01-18T09:23:13.460Z,6.50
2023-01-18T09:25:43.352Z,7.63
2023-01-18T09:28:13.233Z,7.00
2023-01-18T09:30:43.010Z,6.60
2023-01-18T09:33:13.107Z,6.90
2023-01-18T09:35:45.562Z,7.13
2023-01-18T09:38:16.223Z,6.77
2023-01-18T09:40:47.711Z,7.60
2023-01-18T09:43:23.777Z,8.60
2023-01-18T09:45:53.642Z,7.73
2023-01-18T09:48:32.415Z,7.57
2023-01-18T09:51:11.498Z,8.07
2023-01-18T09:53:57.193Z,8.40
2023-01-18T09:56:30.379Z,7.67
2023-01-18T09:59:14.798Z,7.97
2023-01-18T10:01:45.031Z,6.53
2023-01-18T10:04:20.388Z,7.30
2023-01-18T10:06:58.389Z,8.17
2023-01-18T10:09:32.575Z,8.63
2023-01-18T10:12:03.984Z,5.50
2023-01-18T10:14:46.650Z,7.27
2023-01-18T10:17:20.822Z,8.47
2023-01-18T10:19:50.735Z,6.47
2023-01-18T10:22:28.337Z,7.77
2023-01-18T10:25:04.411Z,7.53
2023-01-18T10:27:48.198Z,6.87
2023-01-18T10:30:43.941Z,7.47
2023-01-18T10:33:21.453Z,6.83
2023-01-18T10:35:54.055Z,6.13
2023-01-18T10:38:30.479Z,8.90
2023-01-18T10:41:01.816Z,7.43
2023-01-18T10:43:34.575Z,7.43
2023-01-18T10:46:04.405Z,7.43
2023-01-18T10:48:36.439Z,7.37
2023-01-18T10:51:09.142Z,8.50
2023-01-18T10:53:42.556Z,6.47
2023-01-18T10:56:19.470Z,7.20
2023-01-18T10:58:57.922Z,6.90
2023-01-18T11:01:30.387Z,7.57
2023-01-18T11:04:06.115Z,6.27
2023-01-18T11:06:48.383Z,10.03
2023-01-18T11:09:44.775Z,6.63
2023-01-18T11:12:37.708Z,7.00
2023-01-18T11:15:26.863Z,7.73
2023-01-18T11:18:06.649Z,6.73
2023-01-18T11:20:44.740Z,7.37
2023-01-18T11:23:21.624Z,5.93
2023-01-18T11:26:00.901Z,6.87
2023-01-18T11:28:37.457Z,6.33
2023-01-18T11:31:13.849Z,6.60
2023-01-18T11:33:52.841Z,5.80
2023-01-18T11:36:35.827Z,5.23
2023-01-18T11:39:44.752Z,10.53
2023-01-18T11:42:27.128Z,6.60
2023-01-18T11:45:08.018Z,6.50
2023-01-18T11:47:49.183Z,6.47
2023-01-18T11:50:30.834Z,5.73
2023-01-18T11:53:07.715Z,5.13
2023-01-18T11:55:47.719Z,10.77
2023-01-18T11:58:28.473Z,6.50
2023-01-18T12:01:11.399Z,9.00
2023-01-18T12:03:54.625Z,5.70
2023-01-18T12:06:39.094Z,6.73
2023-01-18T12:09:31.894Z,6.60
2023-01-18T12:12:19.465Z,5.53
2023-01-18T12:15:03.541Z,6.80
2023-01-18T12:17:56.469Z,6.67
2023-01-18T12:20:37.107Z,7.03
2023-01-18T12:23:36.113Z,6.50
2023-01-18T12:26:24.002Z,8.33
2023-01-18T12:29:20.004Z,6.77
2023-01-18T12:32:02.878Z,6.10
2023-01-18T12:34:43.221Z,8.47
2023-01-18T12:37:32.329Z,7.43
2023-01-18T12:40:21.533Z,5.90
2023-01-18T12:43:03.306Z,6.97
2023-01-18T12:45:39.555Z,7.03
2023-01-18T12:48:19.227Z,7.47
2023-01-18T12:50:52.107Z,6.13
2023-01-18T12:53:32.018Z,6.27
2023-01-18T12:56:14.813Z,6.87
2023-01-18T12:58:45.291Z,6.00
2023-01-18T13:01:21.943Z,5.13
2023-01-18T13:03:56.742Z,7.37
2023-01-18T13:06:28.456Z,4.80
2023-01-18T13:09:03.856Z,6.20
2023-01-18T13:11:37.626Z,6.07
2023-01-18T13:14:17.844Z,4.63
2023-01-18T13:16:53.727Z,6.53
2023-01-18T13:19:29.578Z,5.27
2023-01-18T13:22:07.427Z,6.63
2023-01-18T13:24:58.290Z,6.53
2023-01-18T13:27:28.075Z,5.83
2023-01-18T13:30:09.678Z,6.00
2023-01-18T13:32:42.512Z,5.47
2023-01-18T13:35:25.870Z,5.90
2023-01-18T13:37:58.615Z,6.07
2023-01-18T13:40:40.500Z,5.40
2023-01-18T13:43:34.028Z,6.67
2023-01-18T13:46:06.603Z,6.10
2023-01-18T13:48:50.596Z,6.30
2023-01-18T13:51:54.069Z,7.33
2023-01-18T13:54:53.784Z,5.80
2023-01-18T13:57:26.917Z,6.20
2023-01-18T13:59:56.826Z,4.03
2023-01-18T14:02:32.201Z,6.17
2023-01-18T14:05:04.629Z,4.63
2023-01-18T14:07:43.400Z,7.03
2023-01-18T14:10:33.409Z,8.10
2023-01-18T14:13:07.454Z,6.40
2023-01-18T14:15:51.620Z,7.00
2023-01-18T14:18:25.685Z,5.90
2023-01-18T14:21:13.668Z,6.50
2023-01-18T14:24:06.267Z,5.30
2023-01-18T14:26:38.428Z,6.77
2023-01-18T14:29:17.606Z,6.00
2023-01-18T14:31:51.609Z,8.03
2023-01-18T14:34:42.998Z,6.87
2023-01-18T14:37:28.895Z,5.20
2023-01-18T14:40:21.654Z,8.80
2023-01-18T14:42:55.318Z,6.33
2023-01-18T14:45:32.805Z,7.67
2023-01-18T14:48:04.446Z,8.10
2023-01-18T14:50:39.314Z,6.73
2023-01-18T14:53:16.845Z,5.60
2023-01-18T14:55:46.651Z,6.73
2023-01-18T14:58:19.386Z,8.17
2023-01-18T15:00:54.311Z,5.57
2023-01-18T15:03:27.520Z,7.57
2023-01-18T15:06:02.790Z,8.13
2023-01-18T15:08:35.290Z,8.27
2023-01-18T15:11:07.947Z,5.50
2023-01-18T15:13:47.636Z,5.40
2023-01-18T15:16:24.040Z,9.27
2023-01-18T15:18:55.647Z,5.23
2023-01-18T15:21:27.612Z,7.00
2023-01-18T15:24:04.527Z,6.40
2023-01-18T15:26:46.018Z,7.57
2023-01-18T15:29:20.143Z,4.90
2023-01-18T15:31:58.118Z,5.33
2023-01-18T15:34:33.434Z,5.70
2023-01-18T15:37:04.635Z,7.17
2023-01-18T15:39:35.302Z,4.97
2023-01-18T15:42:08.184Z,4.70
2023-01-18T15:44:45.029Z,4.10
2023-01-18T15:47:26.184Z,3.93
2023-01-18T15:49:58.876Z,3.03
2023-01-18T15:52:40.392Z,3.50
2023-01-18T15:55:21.665Z,1.83
2023-01-18T15:58:02.630Z,2.43
2023-01-18T16:00:37.074Z,4.53
2023-01-18T16:03:19.870Z,2.20
2023-01-18T16:06:11.252Z,5.53
2023-01-18T16:08:58.456Z,5.57
2023-01-18T16:11:32.009Z,4.47
2023-01-18T16:14:07.845Z,1.97
2023-01-18T16:16:40.970Z,5.00
2023-01-18T16:19:24.948Z,3.17
2023-01-18T16:21:59.203Z,1.83
2023-01-18T16:24:38.631Z,2.90
2023-01-18T16:27:13.227Z,2.60
2023-01-18T16:29:48.268Z,3.43
2023-01-18T16:32:32.267Z,2.73
2023-01-18T16:35:18.749Z,1.63
2023-01-18T16:37:48.822Z,5.13
2023-01-18T16:40:21.453Z,4.13
2023-01-18T16:43:01.647Z,2.33
2023-01-18T16:45:35.152Z,3.10
2023-01-18T16:48:07.240Z,1.97
2023-01-18T16:50:42.063Z,2.37
2023-01-18T16:53:14.185Z,3.93
2023-01-18T16:55:45.549Z,1.50
2023-01-18T16:58:16.814Z,2.23
2023-01-18T17:00:53.823Z,2.67
2023-01-18T17:03:23.842Z,2.33
2023-01-18T17:05:57.976Z,3.93
2023-01-18T17:08:27.888Z,2.60
2023-01-18T17:10:57.825Z,1.90
2023-01-18T17:13:28.180Z,3.47
2023-01-18T17:15:58.110Z,2.87
2023-01-18T17:18:28.451Z,2.53
2023-01-18T17:21:01.576Z,2.20
2023-01-18T17:23:33.162Z,2.23
2023-01-18T17:26:03.341Z,2.90
2023-01-18T17:28:33.650Z,3.27
2023-01-18T17:31:03.676Z,2.93
2023-01-18T17:33:38.891Z,4.07
2023-01-18T17:36:12.061Z,3.90
2023-01-18T17:38:42.011Z,2.13
2023-01-18T17:41:26.837Z,3.33
2023-01-18T17:43:57.145Z,3.80
2023-01-18T17:46:27.306Z,3.90
2023-01-18T17:48:57.347Z,8.37
2023-01-18T17:51:29.860Z,4.63
2023-01-18T17:54:02.076Z,4.37
2023-01-18T17:56:32.130Z,6.20
2023-01-18T17:59:01.940Z,5.37
2023-01-18T18:01:31.934Z,5.10
2023-01-18T18:04:01.859Z,5.20
2023-01-18T18:06:36.302Z,4.00
2023-01-18T18:09:07.170Z,4.87
2023-01-18T18:11:37.231Z,3.40
2023-01-18T18:14:06.984Z,5.40
2023-01-18T18:16:43.254Z,3.23
2023-01-18T18:19:14.764Z,3.80
2023-01-18T18:21:48.061Z,3.33
2023-01-18T18:24:17.837Z,3.03
2023-01-18T18:26:51.259Z,3.57
2023-01-18T18:29:21.482Z,3.17
2023-01-18T18:31:51.386Z,7.97
2023-01-18T18:34:21.288Z,4.73
2023-01-18T18:36:53.806Z,3.80
2023-01-18T18:39:23.835Z,2.70
2023-01-18T18:41:53.658Z,3.33
2023-01-18T18:44:23.621Z,2.40
2023-01-18T18:46:53.408Z,2.57
2023-01-18T18:49:23.198Z,5.00
2023-01-18T18:51:56.251Z,4.03
2023-01-18T18:54:26.071Z,3.70
2023-01-18T18:57:00.312Z,3.30
2023-01-18T18:59:31.435Z,4.60
2023-01-18T19:02:09.144Z,3.83
2023-01-18T19:04:39.064Z,4.20
2023-01-18T19:07:11.669Z,3.60
2023-01-18T19:09:41.621Z,2.60
2023-01-18T19:12:12.078Z,3.93
2023-01-18T19:14:44.942Z,2.00
2023-01-18T19:17:28.960Z,2.87
2023-01-18T19:20:00.893Z,6.17
2023-01-18T19:22:33.423Z,2.50
2023-01-18T19:25:05.883Z,5.07
2023-01-18T19:27:35.931Z,2.67
2023-01-18T19:30:12.087Z,3.97
2023-01-18T19:32:42.198Z,2.63
2023-01-18T19:35:13.716Z,4.83
2023-01-18T19:37:46.516Z,5.50
2023-01-18T19:40:17.565Z,4.53
2023-01-18T19:42:54.720Z,2.90
2023-01-18T19:45:28.832Z,2.77
2023-01-18T19:48:00.729Z,3.17
2023-01-18T19:50:32.651Z,5.27
2023-01-18T19:53:05.286Z,3.97
2023-01-18T19:55:37.402Z,3.00
2023-01-18T19:58:09.715Z,3.00
2023-01-18T20:00:41.644Z,3.63
2023-01-18T20:03:15.600Z,5.93
2023-01-18T20:06:25.319Z,3.07
2023-01-18T20:08:57.891Z,4.10
2023-01-18T20:11:27.785Z,3.37
2023-01-18T20:13:57.595Z,3.20
2023-01-18T20:16:27.485Z,3.27
2023-01-18T20:18:57.407Z,4.23
2023-01-18T20:21:27.264Z,6.00
2023-01-18T20:24:01.112Z,2.80
2023-01-18T20:26:37.262Z,5.07
2023-01-18T20:29:08.402Z,2.20
2023-01-18T20:31:39.587Z,5.03
2023-01-18T20:34:12.331Z,3.63
2023-01-18T20:36:42.262Z,4.73
2023-01-18T20:39:16.443Z,6.33
2023-01-18T20:41:48.860Z,5.27
2023-01-18T20:44:19.006Z,3.77
2023-01-18T20:46:55.164Z,2.70
2023-01-18T20:49:37.298Z,3.77
2023-01-18T20:52:08.814Z,4.30
2023-01-18T20:54:41.592Z,5.43
2023-01-18T20:57:11.540Z,3.33
2023-01-18T20:59:41.539Z,2.17
2023-01-18T21:02:12.921Z,3.40
2023-01-18T21:04:47.511Z,5.07
2023-01-18T21:07:17.508Z,8.40
2023-01-18T21:09:49.907Z,5.40
2023-01-18T21:12:19.888Z,5.97
2023-01-18T21:14:50.005Z,2.80
2023-01-18T21:17:20.353Z,2.60
2023-01-18T21:19:53.592Z,3.00
2023-01-18T21:22:24.365Z,2.67
2023-01-18T21:24:57.264Z,4.17
2023-01-18T21:27:28.811Z,3.97
2023-01-18T21:29:58.676Z,3.73
2023-01-18T21:32:28.679Z,2.97
2023-01-18T21:34:58.738Z,2.87
2023-01-18T21:37:29.817Z,2.60
2023-01-18T21:40:02.206Z,2.83
2023-01-18T21:42:44.510Z,1.70
2023-01-18T21:45:27.249Z,1.90
2023-01-18T21:47:57.068Z,2.00
2023-01-18T21:50:39.260Z,3.50
2023-01-18T21:53:24.535Z,2.80
2023-01-18T21:55:56.936Z,2.47
2023-01-18T21:58:40.360Z,3.63
2023-01-18T22:01:13.610Z,3.17
2023-01-18T22:04:04.448Z,7.57
2023-01-18T22:06:34.254Z,5.27
2023-01-18T22:09:04.772Z,5.03
2023-01-18T22:11:37.232Z,3.30
2023-01-18T22:14:07.358Z,1.63
2023-01-18T22:16:37.464Z,3.40
2023-01-18T22:19:07.704Z,3.40
2023-01-18T22:21:37.668Z,4.70
2023-01-18T22:24:08.127Z,3.97
2023-01-18T22:26:41.022Z,2.77
2023-01-18T22:29:11.369Z,2.87
2023-01-18T22:31:41.421Z,5.47
2023-01-18T22:34:21.382Z,4.50
2023-01-18T22:36:51.139Z,2.70
2023-01-18T22:39:20.975Z,4.10
2023-01-18T22:41:53.328Z,1.87
2023-01-18T22:44:23.214Z,3.97
2023-01-18T22:46:53.073Z,3.73
2023-01-18T22:49:22.949Z,2.77
2023-01-18T22:51:52.744Z,2.97
2023-01-18T22:54:23.168Z,3.83
2023-01-18T22:56:55.557Z,3.83
2023-01-18T22:59:25.341Z,2.30
2023-01-18T23:01:55.160Z,3.33
2023-01-18T23:04:24.964Z,2.93
2023-01-18T23:06:57.971Z,2.17
2023-01-18T23:09:28.148Z,3.53
2023-01-18T23:12:00.546Z,1.10
2023-01-18T23:14:42.698Z,1.07
2023-01-18T23:17:26.374Z,3.07
2023-01-18T23:19:56.103Z,3.93
2023-01-18T23:22:25.871Z,2.77
2023-01-18T23:24:55.649Z,3.03
2023-01-18T23:27:28.217Z,2.13
2023-01-18T23:29:59.365Z,5.20
2023-01-18T23:32:30.667Z,3.33
2023-01-18T23:35:01.225Z,3.17
2023-01-18T23:37:31.302Z,2.57
2023-01-18T23:40:13.471Z,2.10
2023-01-18T23:42:58.376Z,2.40
2023-01-18T23:45:40.657Z,1.70
2023-01-18T23:48:25.147Z,1.63
2023-01-18T23:51:07.334Z,2.07
2023-01-18T23:53:49.477Z,1.47
2023-01-18T23:56:19.274Z,2.50
2023-01-18T23:58:51.633Z,2.10
